sensor_id;sensor_type;location;lat;lon;timestamp;temperature;humidity
3288;DHT22;3260;52.438;13.502;2022-11-24T05:02:50;3.80;6.20
3288;DHT22;3260;52.438;13.502;2022-11-24T05:05:18;3.70;6.40
3288;DHT22;3260;52.438;13.502;2022-11-24T05:07:46;3.70;7.30
3288;DHT22;3260;52.438;13.502;2022-11-24T05:10:15;3.70;8.20
3288;DHT22;3260;52.438;13.502;2022-11-24T05:13:04;3.70;4.60
3288;DHT22;3260;52.438;13.502;2022-11-24T05:15:36;3.50;1.00
3288;DHT22;3260;52.438;13.502;2022-11-24T05:18:09;3.40;4.80
3288;DHT22;3260;52.438;13.502;2022-11-24T05:20:40;3.30;7.00
3288;DHT22;3260;52.438;13.502;2022-11-24T05:23:10;3.30;5.70
3288;DHT22;3260;52.438;13.502;2022-11-24T05:25:38;3.30;11.30
3288;DHT22;3260;52.438;13.502;2022-11-24T05:28:13;3.20;13.50
3288;DHT22;3260;52.438;13.502;2022-11-24T05:30:41;3.20;17.70
3288;DHT22;3260;52.438;13.502;2022-11-24T05:33:13;3.10;17.50
3288;DHT22;3260;52.438;13.502;2022-11-24T05:35:45;3.00;19.40
3288;DHT22;3260;52.438;13.502;2022-11-24T05:38:15;3.00;25.50
3288;DHT22;3260;52.438;13.502;2022-11-24T05:40:44;3.00;33.20
3288;DHT22;3260;52.438;13.502;2022-11-24T05:43:13;3.00;33.20
3288;DHT22;3260;52.438;13.502;2022-11-24T05:45:42;2.90;33.50
3288;DHT22;3260;52.438;13.502;2022-11-24T05:48:13;2.80;34.10
3288;DHT22;3260;52.438;13.502;2022-11-24T05:50:42;2.80;37.30
3288;DHT22;3260;52.438;13.502;2022-11-24T05:53:11;2.90;50.10
3288;DHT22;3260;52.438;13.502;2022-11-24T05:55:40;2.90;54.60
3288;DHT22;3260;52.438;13.502;2022-11-24T05:58:09;2.90;63.80
3288;DHT22;3260;52.438;13.502;2022-11-24T06:00:38;2.90;64.00
3288;DHT22;3260;52.438;13.502;2022-11-24T06:03:07;2.80;62.10
3288;DHT22;3260;52.438;13.502;2022-11-24T06:05:38;2.80;69.20
3288;DHT22;3260;52.438;13.502;2022-11-24T06:08:06;2.90;78.10
3288;DHT22;3260;52.438;13.502;2022-11-24T06:10:35;2.90;81.10
3288;DHT22;3260;52.438;13.502;2022-11-24T06:13:04;2.90;82.10
3288;DHT22;3260;52.438;13.502;2022-11-24T06:15:33;2.90;80.60
3288;DHT22;3260;52.438;13.502;2022-11-24T06:18:03;2.80;79.70
3288;DHT22;3260;52.438;13.502;2022-11-24T06:20:31;2.80;80.80
3288;DHT22;3260;52.438;13.502;2022-11-24T06:23:01;2.90;83.30
3288;DHT22;3260;52.438;13.502;2022-11-24T06:25:29;2.90;82.90
3288;DHT22;3260;52.438;13.502;2022-11-24T06:27:57;2.90;83.20
3288;DHT22;3260;52.438;13.502;2022-11-24T06:30:30;2.80;76.90
3288;DHT22;3260;52.438;13.502;2022-11-24T06:32:58;2.70;68.50
3288;DHT22;3260;52.438;13.502;2022-11-24T06:35:27;2.70;72.00
3288;DHT22;3260;52.438;13.502;2022-11-24T06:37:55;2.80;74.90
3288;DHT22;3260;52.438;13.502;2022-11-24T06:40:25;2.80;77.30
3288;DHT22;3260;52.438;13.502;2022-11-24T06:42:53;2.80;77.70
3288;DHT22;3260;52.438;13.502;2022-11-24T06:45:21;2.90;79.50
3288;DHT22;3260;52.438;13.502;2022-11-24T06:47:52;3.00;81.70
3288;DHT22;3260;52.438;13.502;2022-11-24T06:50:21;3.10;81.10
3288;DHT22;3260;52.438;13.502;2022-11-24T06:52:56;3.10;84.60
3288;DHT22;3260;52.438;13.502;2022-11-24T06:55:26;3.10;69.50
3288;DHT22;3260;52.438;13.502;2022-11-24T06:57:54;3.10;63.30
3288;DHT22;3260;52.438;13.502;2022-11-24T07:00:22;3.10;60.20
3288;DHT22;3260;52.438;13.502;2022-11-24T07:02:51;3.20;56.50
3288;DHT22;3260;52.438;13.502;2022-11-24T07:05:19;3.20;54.60
3288;DHT22;3260;52.438;13.502;2022-11-24T07:07:47;3.30;51.90
3288;DHT22;3260;52.438;13.502;2022-11-24T07:10:17;3.40;50.50
3288;DHT22;3260;52.438;13.502;2022-11-24T07:12:47;3.50;49.50
3288;DHT22;3260;52.438;13.502;2022-11-24T07:15:15;3.60;46.90
3288;DHT22;3260;52.438;13.502;2022-11-24T07:17:43;3.70;41.80
3288;DHT22;3260;52.438;13.502;2022-11-24T07:20:11;3.70;33.90
3288;DHT22;3260;52.438;13.502;2022-11-24T07:22:39;3.60;16.50
3288;DHT22;3260;52.438;13.502;2022-11-24T07:25:08;3.70;10.70
3288;DHT22;3260;52.438;13.502;2022-11-24T07:27:36;3.80;8.80
3288;DHT22;3260;52.438;13.502;2022-11-24T07:30:07;3.90;6.30
3288;DHT22;3260;52.438;13.502;2022-11-24T07:32:36;3.90;1.00
3288;DHT22;3260;52.438;13.502;2022-11-24T07:35:05;4.00;1.00
3288;DHT22;3260;52.438;13.502;2022-11-24T07:37:34;4.10;1.00
3288;DHT22;3260;52.438;13.502;2022-11-24T07:40:02;4.20;1.00
3288;DHT22;3260;52.438;13.502;2022-11-24T07:42:31;4.40;1.00
3288;DHT22;3260;52.438;13.502;2022-11-24T07:45:00;4.40;1.00
3288;DHT22;3260;52.438;13.502;2022-11-24T07:47:29;4.50;1.00
3288;DHT22;3260;52.438;13.502;2022-11-24T07:49:58;4.60;1.00
3288;DHT22;3260;52.438;13.502;2022-11-24T07:52:26;4.60;1.00
3288;DHT22;3260;52.438;13.502;2022-11-24T07:54:54;4.60;1.00
3288;DHT22;3260;52.438;13.502;2022-11-24T07:57:22;4.70;1.00
3288;DHT22;3260;52.438;13.502;2022-11-24T07:59:50;4.70;1.00
3288;DHT22;3260;52.438;13.502;2022-11-24T08:02:19;4.80;1.00
3288;DHT22;3260;52.438;13.502;2022-11-24T08:04:48;4.80;1.00
3288;DHT22;3260;52.438;13.502;2022-11-24T08:07:16;4.90;1.00
3288;DHT22;3260;52.438;13.502;2022-11-24T08:09:45;4.80;1.00
3288;DHT22;3260;52.438;13.502;2022-11-24T08:12:15;4.90;1.00
3288;DHT22;3260;52.438;13.502;2022-11-24T08:14:47;4.90;1.00
3288;DHT22;3260;52.438;13.502;2022-11-24T08:17:16;5.00;1.00
3288;DHT22;3260;52.438;13.502;2022-11-24T08:19:45;5.10;1.00
3288;DHT22;3260;52.438;13.502;2022-11-24T08:22:14;5.20;1.00
3288;DHT22;3260;52.438;13.502;2022-11-24T08:24:42;5.20;1.00
3288;DHT22;3260;52.438;13.502;2022-11-24T08:27:14;5.20;1.00
3288;DHT22;3260;52.438;13.502;2022-11-24T08:29:43;5.20;1.00
3288;DHT22;3260;52.438;13.502;2022-11-24T08:32:11;5.20;1.00
3288;DHT22;3260;52.438;13.502;2022-11-24T08:34:47;5.20;1.00
3288;DHT22;3260;52.438;13.502;2022-11-24T08:37:17;5.30;1.00
3288;DHT22;3260;52.438;13.502;2022-11-24T08:39:45;5.30;1.00
3288;DHT22;3260;52.438;13.502;2022-11-24T08:42:14;5.30;1.00
3288;DHT22;3260;52.438;13.502;2022-11-24T08:44:42;5.20;1.00
3288;DHT22;3260;52.438;13.502;2022-11-24T08:47:10;4.90;1.00
3288;DHT22;3260;52.438;13.502;2022-11-24T08:49:39;5.00;1.00
3288;DHT22;3260;52.438;13.502;2022-11-24T08:52:08;5.10;1.00
3288;DHT22;3260;52.438;13.502;2022-11-24T08:54:37;5.10;1.00
3288;DHT22;3260;52.438;13.502;2022-11-24T08:57:06;5.20;1.00
3288;DHT22;3260;52.438;13.502;2022-11-24T08:59:35;5.20;1.00
3288;DHT22;3260;52.438;13.502;2022-11-24T09:02:03;5.30;1.00
3288;DHT22;3260;52.438;13.502;2022-11-24T09:04:32;5.40;1.00
3288;DHT22;3260;52.438;13.502;2022-11-24T09:07:01;5.50;1.00
3288;DHT22;3260;52.438;13.502;2022-11-24T09:09:29;5.50;1.00
3288;DHT22;3260;52.438;13.502;2022-11-24T09:11:59;5.60;1.00
3288;DHT22;3260;52.438;13.502;2022-11-24T09:14:27;5.70;1.00
3288;DHT22;3260;52.438;13.502;2022-11-24T09:16:56;5.70;1.00
3288;DHT22;3260;52.438;13.502;2022-11-24T09:19:24;5.70;1.00
3288;DHT22;3260;52.438;13.502;2022-11-24T09:21:52;5.70;1.00
3288;DHT22;3260;52.438;13.502;2022-11-24T09:24:21;5.70;1.00
3288;DHT22;3260;52.438;13.502;2022-11-24T09:26:49;5.70;1.00
3288;DHT22;3260;52.438;13.502;2022-11-24T09:29:21;5.60;1.00
3288;DHT22;3260;52.438;13.502;2022-11-24T09:31:50;5.60;1.00
3288;DHT22;3260;52.438;13.502;2022-11-24T09:34:18;5.60;1.00
3288;DHT22;3260;52.438;13.502;2022-11-24T09:36:47;5.60;1.00
3288;DHT22;3260;52.438;13.502;2022-11-24T09:39:17;5.60;1.00
3288;DHT22;3260;52.438;13.502;2022-11-24T09:41:53;5.70;1.00
3288;DHT22;3260;52.438;13.502;2022-11-24T09:45:00;5.80;1.00
3288;DHT22;3260;52.438;13.502;2022-11-24T09:47:46;5.90;1.00
3288;DHT22;3260;52.438;13.502;2022-11-24T09:50:22;5.90;1.00
3288;DHT22;3260;52.438;13.502;2022-11-24T09:52:55;5.80;1.00
3288;DHT22;3260;52.438;13.502;2022-11-24T09:55:32;5.90;1.00
3288;DHT22;3260;52.438;13.502;2022-11-24T09:58:13;5.90;1.00
3288;DHT22;3260;52.438;13.502;2022-11-24T10:00:51;6.00;1.00
3288;DHT22;3260;52.438;13.502;2022-11-24T10:03:25;5.80;1.00
3288;DHT22;3260;52.438;13.502;2022-11-24T10:06:00;5.80;1.00
3288;DHT22;3260;52.438;13.502;2022-11-24T10:08:42;5.90;1.00
3288;DHT22;3260;52.438;13.502;2022-11-24T10:11:29;6.00;1.00
3288;DHT22;3260;52.438;13.502;2022-11-24T10:17:27;6.50;1.00
3288;DHT22;3260;52.438;13.502;2022-11-24T10:20:07;6.70;1.00
3288;DHT22;3260;52.438;13.502;2022-11-24T10:22:47;7.10;1.00
3288;DHT22;3260;52.438;13.502;2022-11-24T10:25:25;7.20;1.00
3288;DHT22;3260;52.438;13.502;2022-11-24T10:28:00;7.30;1.00
3288;DHT22;3260;52.438;13.502;2022-11-24T10:30:30;7.50;1.00
3288;DHT22;3260;52.438;13.502;2022-11-24T10:33:05;7.80;1.00
3288;DHT22;3260;52.438;13.502;2022-11-24T10:35:43;8.10;1.00
3288;DHT22;3260;52.438;13.502;2022-11-24T10:38:25;8.40;1.00
3288;DHT22;3260;52.438;13.502;2022-11-24T10:41:05;8.70;1.00
3288;DHT22;3260;52.438;13.502;2022-11-24T10:43:41;8.90;1.00
3288;DHT22;3260;52.438;13.502;2022-11-24T10:46:13;9.00;1.00
3288;DHT22;3260;52.438;13.502;2022-11-24T10:48:48;9.00;1.00
3288;DHT22;3260;52.438;13.502;2022-11-24T10:51:35;9.00;1.00
3288;DHT22;3260;52.438;13.502;2022-11-24T10:54:14;9.10;1.00
3288;DHT22;3260;52.438;13.502;2022-11-24T10:56:46;9.30;1.00
3288;DHT22;3260;52.438;13.502;2022-11-24T10:59:31;9.50;1.00
3288;DHT22;3260;52.438;13.502;2022-11-24T11:02:02;9.90;1.00
3288;DHT22;3260;52.438;13.502;2022-11-24T11:05:28;10.30;1.00
3288;DHT22;3260;52.438;13.502;2022-11-24T11:08:25;10.80;1.00
3288;DHT22;3260;52.438;13.502;2022-11-24T11:11:17;11.20;1.00
3288;DHT22;3260;52.438;13.502;2022-11-24T11:13:51;11.60;1.00
3288;DHT22;3260;52.438;13.502;2022-11-24T11:16:34;11.80;1.00
3288;DHT22;3260;52.438;13.502;2022-11-24T11:19:05;11.80;1.00
3288;DHT22;3260;52.438;13.502;2022-11-24T11:22:23;11.70;1.00
3288;DHT22;3260;52.438;13.502;2022-11-24T11:25:15;11.70;1.00
3288;DHT22;3260;52.438;13.502;2022-11-24T11:27:47;11.70;1.00
3288;DHT22;3260;52.438;13.502;2022-11-24T11:30:18;11.70;1.00
3288;DHT22;3260;52.438;13.502;2022-11-24T11:33:19;11.70;1.00
3288;DHT22;3260;52.438;13.502;2022-11-24T11:36:10;11.50;1.00
3288;DHT22;3260;52.438;13.502;2022-11-24T11:38:42;11.20;1.00
3288;DHT22;3260;52.438;13.502;2022-11-24T11:41:21;11.00;1.00
3288;DHT22;3260;52.438;13.502;2022-11-24T11:44:00;11.10;1.00
3288;DHT22;3260;52.438;13.502;2022-11-24T11:46:48;11.20;1.00
3288;DHT22;3260;52.438;13.502;2022-11-24T11:49:16;11.20;1.00
3288;DHT22;3260;52.438;13.502;2022-11-24T11:51:59;11.10;1.00
3288;DHT22;3260;52.438;13.502;2022-11-24T11:54:55;11.10;1.00
3288;DHT22;3260;52.438;13.502;2022-11-24T11:57:45;10.90;1.00
3288;DHT22;3260;52.438;13.502;2022-11-24T12:00:23;10.80;1.00
3288;DHT22;3260;52.438;13.502;2022-11-24T12:03:09;10.60;1.00
3288;DHT22;3260;52.438;13.502;2022-11-24T12:05:59;10.50;1.00
3288;DHT22;3260;52.438;13.502;2022-11-24T12:08:49;10.10;1.00
3288;DHT22;3260;52.438;13.502;2022-11-24T12:11:49;10.00;1.00
3288;DHT22;3260;52.438;13.502;2022-11-24T12:14:33;10.00;1.00
3288;DHT22;3260;52.438;13.502;2022-11-24T12:17:16;10.00;1.00
3288;DHT22;3260;52.438;13.502;2022-11-24T12:20:07;10.10;1.00
3288;DHT22;3260;52.438;13.502;2022-11-24T12:22:50;10.10;1.00
3288;DHT22;3260;52.438;13.502;2022-11-24T12:25:28;10.20;1.00
3288;DHT22;3260;52.438;13.502;2022-11-24T12:28:23;10.20;1.00
3288;DHT22;3260;52.438;13.502;2022-11-24T12:31:04;10.30;1.00
3288;DHT22;3260;52.438;13.502;2022-11-24T12:33:45;10.40;1.00
3288;DHT22;3260;52.438;13.502;2022-11-24T12:36:40;10.60;1.00
3288;DHT22;3260;52.438;13.502;2022-11-24T12:39:26;10.80;1.00
3288;DHT22;3260;52.438;13.502;2022-11-24T12:42:09;10.90;1.00
3288;DHT22;3260;52.438;13.502;2022-11-24T12:45:10;11.00;1.00
3288;DHT22;3260;52.438;13.502;2022-11-24T12:47:54;11.00;1.00
3288;DHT22;3260;52.438;13.502;2022-11-24T12:50:36;10.90;1.00
3288;DHT22;3260;52.438;13.502;2022-11-24T12:53:12;11.00;1.00
3288;DHT22;3260;52.438;13.502;2022-11-24T12:55:43;11.00;1.00
3288;DHT22;3260;52.438;13.502;2022-11-24T12:58:17;10.80;1.00
3288;DHT22;3260;52.438;13.502;2022-11-24T13:01:02;10.60;1.00
3288;DHT22;3260;52.438;13.502;2022-11-24T13:03:49;10.50;1.00
3288;DHT22;3260;52.438;13.502;2022-11-24T13:06:38;10.40;1.00
3288;DHT22;3260;52.438;13.502;2022-11-24T13:09:15;10.50;1.00
3288;DHT22;3260;52.438;13.502;2022-11-24T13:11:44;10.70;1.00
3288;DHT22;3260;52.438;13.502;2022-11-24T13:14:19;10.90;1.00
3288;DHT22;3260;52.438;13.502;2022-11-24T13:16:55;10.90;1.00
3288;DHT22;3260;52.438;13.502;2022-11-24T13:19:45;10.90;1.00
3288;DHT22;3260;52.438;13.502;2022-11-24T13:22:16;11.00;1.00
3288;DHT22;3260;52.438;13.502;2022-11-24T13:25:11;11.10;1.00
3288;DHT22;3260;52.438;13.502;2022-11-24T13:27:44;11.00;1.00
3288;DHT22;3260;52.438;13.502;2022-11-24T13:30:53;11.00;1.00
3288;DHT22;3260;52.438;13.502;2022-11-24T13:33:39;11.00;1.00
3288;DHT22;3260;52.438;13.502;2022-11-24T13:36:29;10.90;1.00
3288;DHT22;3260;52.438;13.502;2022-11-24T13:39:01;10.90;1.00
3288;DHT22;3260;52.438;13.502;2022-11-24T13:41:59;10.90;1.00
3288;DHT22;3260;52.438;13.502;2022-11-24T13:44:27;10.80;1.00
3288;DHT22;3260;52.438;13.502;2022-11-24T13:50:21;10.50;1.00
3288;DHT22;3260;52.438;13.502;2022-11-24T13:53:11;10.50;1.00
3288;DHT22;3260;52.438;13.502;2022-11-24T13:55:53;10.40;1.00
3288;DHT22;3260;52.438;13.502;2022-11-24T13:58:33;10.30;1.00
3288;DHT22;3260;52.438;13.502;2022-11-24T14:01:12;10.10;1.00
3288;DHT22;3260;52.438;13.502;2022-11-24T14:04:05;9.80;1.00
3288;DHT22;3260;52.438;13.502;2022-11-24T14:07:01;9.70;1.00
3288;DHT22;3260;52.438;13.502;2022-11-24T14:09:39;9.60;1.00
3288;DHT22;3260;52.438;13.502;2022-11-24T14:12:13;9.50;1.00
3288;DHT22;3260;52.438;13.502;2022-11-24T14:14:44;9.30;1.00
3288;DHT22;3260;52.438;13.502;2022-11-24T14:17:16;9.20;1.00
3288;DHT22;3260;52.438;13.502;2022-11-24T14:19:48;9.10;1.00
3288;DHT22;3260;52.438;13.502;2022-11-24T14:22:21;9.00;1.00
3288;DHT22;3260;52.438;13.502;2022-11-24T14:24:54;8.90;1.00
3288;DHT22;3260;52.438;13.502;2022-11-24T14:27:31;8.70;1.00
3288;DHT22;3260;52.438;13.502;2022-11-24T14:30:05;8.60;1.00
3288;DHT22;3260;52.438;13.502;2022-11-24T14:32:53;8.50;1.00
3288;DHT22;3260;52.438;13.502;2022-11-24T14:35:24;8.30;1.00
3288;DHT22;3260;52.438;13.502;2022-11-24T14:37:55;8.30;1.00
3288;DHT22;3260;52.438;13.502;2022-11-24T14:40:38;8.20;1.00
3288;DHT22;3260;52.438;13.502;2022-11-24T14:43:18;8.10;1.00
3288;DHT22;3260;52.438;13.502;2022-11-24T14:45:49;8.00;1.00
3288;DHT22;3260;52.438;13.502;2022-11-24T14:48:24;8.00;1.00
3288;DHT22;3260;52.438;13.502;2022-11-24T14:51:04;7.90;1.00
3288;DHT22;3260;52.438;13.502;2022-11-24T14:53:40;7.90;1.00
3288;DHT22;3260;52.438;13.502;2022-11-24T14:56:21;7.80;1.00
3288;DHT22;3260;52.438;13.502;2022-11-24T14:58:51;7.70;1.00
3288;DHT22;3260;52.438;13.502;2022-11-24T15:01:27;7.70;1.00
3288;DHT22;3260;52.438;13.502;2022-11-24T15:04:16;7.60;1.00
3288;DHT22;3260;52.438;13.502;2022-11-24T15:07:13;7.60;1.00
3288;DHT22;3260;52.438;13.502;2022-11-24T15:09:50;7.50;1.00
3288;DHT22;3260;52.438;13.502;2022-11-24T15:12:25;7.50;1.00
3288;DHT22;3260;52.438;13.502;2022-11-24T15:14:57;7.50;1.00
3288;DHT22;3260;52.438;13.502;2022-11-24T15:17:29;7.50;1.00
3288;DHT22;3260;52.438;13.502;2022-11-24T15:20:01;7.40;1.00
3288;DHT22;3260;52.438;13.502;2022-11-24T15:22:37;7.40;1.00
3288;DHT22;3260;52.438;13.502;2022-11-24T15:25:31;7.30;1.00
3288;DHT22;3260;52.438;13.502;2022-11-24T15:28:00;7.20;1.00
3288;DHT22;3260;52.438;13.502;2022-11-24T15:30:28;7.10;1.00
3288;DHT22;3260;52.438;13.502;2022-11-24T15:32:59;7.00;1.00
3288;DHT22;3260;52.438;13.502;2022-11-24T15:35:30;6.90;1.00
3288;DHT22;3260;52.438;13.502;2022-11-24T15:37:59;6.90;1.00
3288;DHT22;3260;52.438;13.502;2022-11-24T15:40:29;6.90;1.00
3288;DHT22;3260;52.438;13.502;2022-11-24T15:42:57;6.90;1.00
3288;DHT22;3260;52.438;13.502;2022-11-24T15:45:33;6.90;1.00
3288;DHT22;3260;52.438;13.502;2022-11-24T15:48:01;6.90;1.00
3288;DHT22;3260;52.438;13.502;2022-11-24T15:50:30;6.80;1.00
3288;DHT22;3260;52.438;13.502;2022-11-24T15:52:58;6.90;1.00
3288;DHT22;3260;52.438;13.502;2022-11-24T15:55:28;6.80;1.00
3288;DHT22;3260;52.438;13.502;2022-11-24T15:57:56;6.90;1.00
3288;DHT22;3260;52.438;13.502;2022-11-24T16:00:24;6.90;1.00
3288;DHT22;3260;52.438;13.502;2022-11-24T16:02:52;6.90;1.00
3288;DHT22;3260;52.438;13.502;2022-11-24T16:05:21;7.00;1.00
3288;DHT22;3260;52.438;13.502;2022-11-24T16:07:49;7.00;1.00
3288;DHT22;3260;52.438;13.502;2022-11-24T16:10:23;7.00;1.00
3288;DHT22;3260;52.438;13.502;2022-11-24T16:12:55;7.10;1.00
3288;DHT22;3260;52.438;13.502;2022-11-24T16:15:23;7.10;1.00
3288;DHT22;3260;52.438;13.502;2022-11-24T16:17:51;7.10;1.00
3288;DHT22;3260;52.438;13.502;2022-11-24T16:20:20;7.10;1.00
3288;DHT22;3260;52.438;13.502;2022-11-24T16:22:48;7.10;1.00
3288;DHT22;3260;52.438;13.502;2022-11-24T16:25:17;7.00;1.00
3288;DHT22;3260;52.438;13.502;2022-11-24T16:27:45;7.00;1.00
3288;DHT22;3260;52.438;13.502;2022-11-24T16:30:15;7.00;1.00
3288;DHT22;3260;52.438;13.502;2022-11-24T16:32:43;7.10;1.00
3288;DHT22;3260;52.438;13.502;2022-11-24T16:35:12;7.00;1.00
3288;DHT22;3260;52.438;13.502;2022-11-24T16:37:40;6.90;1.00
3288;DHT22;3260;52.438;13.502;2022-11-24T16:40:09;6.80;1.00
3288;DHT22;3260;52.438;13.502;2022-11-24T16:42:37;6.80;1.00
3288;DHT22;3260;52.438;13.502;2022-11-24T16:45:08;6.70;1.00
3288;DHT22;3260;52.438;13.502;2022-11-24T16:47:40;6.60;1.00
3288;DHT22;3260;52.438;13.502;2022-11-24T16:50:10;6.60;1.00
3288;DHT22;3260;52.438;13.502;2022-11-24T16:52:39;6.50;1.00
3288;DHT22;3260;52.438;13.502;2022-11-24T16:55:07;6.50;1.00
3288;DHT22;3260;52.438;13.502;2022-11-24T16:57:37;6.50;1.00
3288;DHT22;3260;52.438;13.502;2022-11-24T17:00:06;6.50;1.00
3288;DHT22;3260;52.438;13.502;2022-11-24T17:02:35;6.40;1.00
3288;DHT22;3260;52.438;13.502;2022-11-24T17:05:06;6.40;1.00
3288;DHT22;3260;52.438;13.502;2022-11-24T17:07:35;6.40;1.00
3288;DHT22;3260;52.438;13.502;2022-11-24T17:10:05;6.40;1.00
3288;DHT22;3260;52.438;13.502;2022-11-24T17:12:35;6.30;1.00
3288;DHT22;3260;52.438;13.502;2022-11-24T17:15:04;6.30;1.00
3288;DHT22;3260;52.438;13.502;2022-11-24T17:17:52;6.30;1.00
3288;DHT22;3260;52.438;13.502;2022-11-24T17:20:42;6.30;1.00
3288;DHT22;3260;52.438;13.502;2022-11-24T17:23:10;6.20;1.00
3288;DHT22;3260;52.438;13.502;2022-11-24T17:25:39;6.20;1.00
3288;DHT22;3260;52.438;13.502;2022-11-24T17:28:07;6.10;1.00
3288;DHT22;3260;52.438;13.502;2022-11-24T17:30:35;6.10;1.00
3288;DHT22;3260;52.438;13.502;2022-11-24T17:33:04;6.00;1.00
3288;DHT22;3260;52.438;13.502;2022-11-24T17:35:32;5.90;1.00
3288;DHT22;3260;52.438;13.502;2022-11-24T17:38:03;5.80;1.00
3288;DHT22;3260;52.438;13.502;2022-11-24T17:40:31;5.80;1.00
3288;DHT22;3260;52.438;13.502;2022-11-24T17:43:00;5.80;1.00
3288;DHT22;3260;52.438;13.502;2022-11-24T17:45:29;5.80;1.00
3288;DHT22;3260;52.438;13.502;2022-11-24T17:47:58;5.70;1.00
3288;DHT22;3260;52.438;13.502;2022-11-24T17:50:26;5.70;1.00
3288;DHT22;3260;52.438;13.502;2022-11-24T17:52:55;5.70;1.00
3288;DHT22;3260;52.438;13.502;2022-11-24T17:55:24;5.80;1.00
3288;DHT22;3260;52.438;13.502;2022-11-24T17:57:52;5.80;1.00
3288;DHT22;3260;52.438;13.502;2022-11-24T18:00:22;5.80;1.00
3288;DHT22;3260;52.438;13.502;2022-11-24T18:02:51;5.90;1.00
3288;DHT22;3260;52.438;13.502;2022-11-24T18:05:19;6.00;1.00
3288;DHT22;3260;52.438;13.502;2022-11-24T18:07:47;6.00;1.00
3288;DHT22;3260;52.438;13.502;2022-11-24T18:10:15;6.10;1.00
3288;DHT22;3260;52.438;13.502;2022-11-24T18:12:45;6.20;1.00
3288;DHT22;3260;52.438;13.502;2022-11-24T18:15:13;6.30;1.00
3288;DHT22;3260;52.438;13.502;2022-11-24T18:17:42;6.40;1.00
3288;DHT22;3260;52.438;13.502;2022-11-24T18:20:11;6.40;1.00
3288;DHT22;3260;52.438;13.502;2022-11-24T18:22:39;6.50;1.00
3288;DHT22;3260;52.438;13.502;2022-11-24T18:25:27;6.60;1.00
3288;DHT22;3260;52.438;13.502;2022-11-24T18:27:57;6.60;1.00
3288;DHT22;3260;52.438;13.502;2022-11-24T18:30:25;6.70;1.00
3288;DHT22;3260;52.438;13.502;2022-11-24T18:32:53;6.70;1.00
3288;DHT22;3260;52.438;13.502;2022-11-24T18:35:21;6.70;1.00
3288;DHT22;3260;52.438;13.502;2022-11-24T18:37:50;6.70;1.00
3288;DHT22;3260;52.438;13.502;2022-11-24T18:40:19;6.80;1.00
3288;DHT22;3260;52.438;13.502;2022-11-24T18:42:47;6.80;1.00
3288;DHT22;3260;52.438;13.502;2022-11-24T18:45:16;6.80;1.00
3288;DHT22;3260;52.438;13.502;2022-11-24T18:47:45;6.80;1.00
3288;DHT22;3260;52.438;13.502;2022-11-24T18:50:13;6.70;1.00
3288;DHT22;3260;52.438;13.502;2022-11-24T18:52:42;6.60;1.00
3288;DHT22;3260;52.438;13.502;2022-11-24T18:55:11;6.50;1.00
3288;DHT22;3260;52.438;13.502;2022-11-24T18:57:39;6.40;1.00
3288;DHT22;3260;52.438;13.502;2022-11-24T19:00:08;6.40;1.00
3288;DHT22;3260;52.438;13.502;2022-11-24T19:02:39;6.30;1.00
3288;DHT22;3260;52.438;13.502;2022-11-24T19:05:07;6.30;1.00
3288;DHT22;3260;52.438;13.502;2022-11-24T19:07:36;6.30;1.00
3288;DHT22;3260;52.438;13.502;2022-11-24T19:10:07;6.40;1.00
3288;DHT22;3260;52.438;13.502;2022-11-24T19:12:36;6.50;1.00
3288;DHT22;3260;52.438;13.502;2022-11-24T19:15:05;6.50;1.00
3288;DHT22;3260;52.438;13.502;2022-11-24T19:17:34;6.60;1.00
3288;DHT22;3260;52.438;13.502;2022-11-24T19:20:05;6.70;1.00
3288;DHT22;3260;52.438;13.502;2022-11-24T19:22:34;6.80;1.00
3288;DHT22;3260;52.438;13.502;2022-11-24T19:25:03;6.80;1.00
3288;DHT22;3260;52.438;13.502;2022-11-24T19:27:32;6.80;1.00
3288;DHT22;3260;52.438;13.502;2022-11-24T19:30:00;6.80;1.00
3288;DHT22;3260;52.438;13.502;2022-11-24T19:32:30;6.80;1.00
3288;DHT22;3260;52.438;13.502;2022-11-24T19:34:59;6.80;1.00
3288;DHT22;3260;52.438;13.502;2022-11-24T19:37:28;6.70;1.00
3288;DHT22;3260;52.438;13.502;2022-11-24T19:39:56;6.60;1.00
3288;DHT22;3260;52.438;13.502;2022-11-24T19:42:25;6.50;1.00
3288;DHT22;3260;52.438;13.502;2022-11-24T19:44:53;6.40;1.00
3288;DHT22;3260;52.438;13.502;2022-11-24T19:47:22;6.30;1.00
3288;DHT22;3260;52.438;13.502;2022-11-24T19:49:50;6.10;1.00
3288;DHT22;3260;52.438;13.502;2022-11-24T19:52:19;6.00;1.00
3288;DHT22;3260;52.438;13.502;2022-11-24T19:54:49;5.80;1.00
3288;DHT22;3260;52.438;13.502;2022-11-24T19:57:17;5.80;1.00
3288;DHT22;3260;52.438;13.502;2022-11-24T19:59:45;5.60;1.00
3288;DHT22;3260;52.438;13.502;2022-11-24T20:02:14;5.50;1.00
3288;DHT22;3260;52.438;13.502;2022-11-24T20:04:42;5.40;1.00
3288;DHT22;3260;52.438;13.502;2022-11-24T20:07:10;5.40;1.00
3288;DHT22;3260;52.438;13.502;2022-11-24T20:09:39;5.40;1.00
3288;DHT22;3260;52.438;13.502;2022-11-24T20:12:08;5.40;1.00
3288;DHT22;3260;52.438;13.502;2022-11-24T20:14:36;5.40;1.00
3288;DHT22;3260;52.438;13.502;2022-11-24T20:17:05;5.40;1.00
3288;DHT22;3260;52.438;13.502;2022-11-24T20:19:33;5.40;1.00
3288;DHT22;3260;52.438;13.502;2022-11-24T20:22:02;5.40;1.00
3288;DHT22;3260;52.438;13.502;2022-11-24T20:24:30;5.40;1.00
3288;DHT22;3260;52.438;13.502;2022-11-24T20:26:59;5.50;1.00
3288;DHT22;3260;52.438;13.502;2022-11-24T20:29:30;5.50;1.00
3288;DHT22;3260;52.438;13.502;2022-11-24T20:31:59;5.50;1.00
3288;DHT22;3260;52.438;13.502;2022-11-24T20:34:27;5.50;1.00
3288;DHT22;3260;52.438;13.502;2022-11-24T20:36:56;5.50;1.00
3288;DHT22;3260;52.438;13.502;2022-11-24T20:39:26;5.50;1.00
3288;DHT22;3260;52.438;13.502;2022-11-24T20:41:55;5.50;1.00
3288;DHT22;3260;52.438;13.502;2022-11-24T20:44:23;5.40;1.00
3288;DHT22;3260;52.438;13.502;2022-11-24T20:46:56;5.40;1.00
3288;DHT22;3260;52.438;13.502;2022-11-24T20:49:26;5.40;1.00
3288;DHT22;3260;52.438;13.502;2022-11-24T20:51:56;5.40;1.00
3288;DHT22;3260;52.438;13.502;2022-11-24T20:54:24;5.40;1.00
3288;DHT22;3260;52.438;13.502;2022-11-24T20:56:53;5.30;1.00
3288;DHT22;3260;52.438;13.502;2022-11-24T20:59:23;5.30;1.00
3288;DHT22;3260;52.438;13.502;2022-11-24T21:01:52;5.20;1.00
3288;DHT22;3260;52.438;13.502;2022-11-24T21:04:24;5.10;3.10
3288;DHT22;3260;52.438;13.502;2022-11-24T21:06:53;5.10;10.60
3288;DHT22;3260;52.438;13.502;2022-11-24T21:09:22;5.00;13.60
3288;DHT22;3260;52.438;13.502;2022-11-24T21:11:52;5.00;14.30
3288;DHT22;3260;52.438;13.502;2022-11-24T21:14:21;5.00;13.90
3288;DHT22;3260;52.438;13.502;2022-11-24T21:16:50;4.90;10.40
3288;DHT22;3260;52.438;13.502;2022-11-24T21:19:18;4.80;8.90
3288;DHT22;3260;52.438;13.502;2022-11-24T21:21:48;4.70;8.00
3288;DHT22;3260;52.438;13.502;2022-11-24T21:24:17;4.50;7.10
3288;DHT22;3260;52.438;13.502;2022-11-24T21:26:47;4.50;8.10
3288;DHT22;3260;52.438;13.502;2022-11-24T21:29:18;4.50;12.70
3288;DHT22;3260;52.438;13.502;2022-11-24T21:31:49;4.50;17.70
3288;DHT22;3260;52.438;13.502;2022-11-24T21:34:17;4.50;18.90
3288;DHT22;3260;52.438;13.502;2022-11-24T21:36:47;4.50;19.70
3288;DHT22;3260;52.438;13.502;2022-11-24T21:39:16;4.40;19.50
3288;DHT22;3260;52.438;13.502;2022-11-24T21:41:44;4.40;17.80
3288;DHT22;3260;52.438;13.502;2022-11-24T21:44:13;4.40;19.90
3288;DHT22;3260;52.438;13.502;2022-11-24T21:46:42;4.40;20.90
3288;DHT22;3260;52.438;13.502;2022-11-24T21:49:16;4.40;19.90
3288;DHT22;3260;52.438;13.502;2022-11-24T21:51:44;4.40;16.20
3288;DHT22;3260;52.438;13.502;2022-11-24T21:54:15;4.40;14.50
3288;DHT22;3260;52.438;13.502;2022-11-24T21:56:43;4.50;14.80
3288;DHT22;3260;52.438;13.502;2022-11-24T21:59:11;4.50;14.20
